createdAt,value
2023-02-17T00:00:16.990Z,99258.03
2023-02-17T00:05:24.592Z,99259.34
2023-02-17T00:10:29.445Z,99258.84
2023-02-17T00:15:34.759Z,99268.88
2023-02-17T00:20:44.224Z,99260.94
2023-02-17T00:25:49.184Z,99257.75
2023-02-17T00:30:54.337Z,99253.75
2023-02-17T00:36:02.020Z,99251.81
2023-02-17T00:41:08.651Z,99243.84
2023-02-17T00:46:13.684Z,99248.38
2023-02-17T00:51:22.397Z,99250.78
2023-02-17T00:56:27.305Z,99245.41
2023-02-17T01:01:32.550Z,99234.50
2023-02-17T01:06:41.829Z,99233.28
2023-02-17T01:11:46.853Z,99229.81
2023-02-17T01:16:52.215Z,99233.25
2023-02-17T01:22:01.337Z,99224.50
2023-02-17T01:27:06.555Z,99218.09
2023-02-17T01:32:11.789Z,99209.28
2023-02-17T01:37:19.287Z,99205.56
2023-02-17T01:42:24.214Z,99203.47
2023-02-17T01:47:29.116Z,99201.56
2023-02-17T01:52:36.849Z,99194.97
2023-02-17T01:57:44.144Z,99193.34
2023-02-17T02:02:51.744Z,99180.09
2023-02-17T02:08:00.684Z,99158.38
2023-02-17T02:13:06.655Z,99152.69
2023-02-17T02:18:34.722Z,99146.91
2023-02-17T02:24:12.643Z,99135.44
2023-02-17T02:29:33.624Z,99119.56
2023-02-17T02:34:47.380Z,99118.50
2023-02-17T02:39:55.949Z,99107.94
2023-02-17T02:45:01.103Z,99087.66
2023-02-17T02:50:09.671Z,99090.31
2023-02-17T02:55:21.879Z,99078.59
2023-02-17T03:00:33.323Z,99085.00
2023-02-17T03:05:52.681Z,99084.75
2023-02-17T03:10:58.253Z,99076.94
2023-02-17T03:16:04.150Z,99080.66
2023-02-17T03:21:17.754Z,99075.38
2023-02-17T03:26:22.805Z,99070.69
2023-02-17T03:31:30.770Z,99058.88
2023-02-17T03:36:38.797Z,99059.75
2023-02-17T03:41:43.673Z,99056.56
2023-02-17T03:46:48.743Z,99056.75
2023-02-17T03:51:56.352Z,99051.94
2023-02-17T03:57:01.564Z,99042.94
2023-02-17T04:02:06.957Z,99041.66
2023-02-17T04:07:14.564Z,99023.78
2023-02-17T04:12:19.454Z,99037.41
2023-02-17T04:17:24.704Z,99034.91
2023-02-17T04:22:32.350Z,99045.69
2023-02-17T04:27:37.542Z,99040.19
2023-02-17T04:32:44.101Z,99039.53
2023-02-17T04:37:51.707Z,99037.09
2023-02-17T04:42:56.664Z,99031.69
2023-02-17T04:48:01.787Z,99022.06
2023-02-17T04:53:09.866Z,99023.78
2023-02-17T04:58:14.926Z,99012.16
2023-02-17T05:03:20.481Z,99010.72
2023-02-17T05:08:30.272Z,98995.19
2023-02-17T05:13:35.455Z,99004.94
2023-02-17T05:18:41.986Z,98997.38
2023-02-17T05:23:49.505Z,99009.16
2023-02-17T05:28:54.520Z,99007.91
2023-02-17T05:33:59.504Z,98997.81
2023-02-17T05:39:09.085Z,98995.94
2023-02-17T05:44:14.347Z,98995.09
2023-02-17T05:49:19.439Z,98987.66
2023-02-17T05:54:27.114Z,98990.81
2023-02-17T05:59:31.992Z,98987.09
2023-02-17T06:04:37.028Z,98997.16
2023-02-17T06:09:47.411Z,98989.34
2023-02-17T06:14:55.237Z,98990.50
2023-02-17T06:20:00.482Z,98990.19
2023-02-17T06:25:08.482Z,98987.78
2023-02-17T06:30:15.079Z,98986.56
2023-02-17T06:35:21.272Z,98991.66
2023-02-17T06:40:28.996Z,98993.97
2023-02-17T06:45:36.032Z,98987.91
2023-02-17T06:50:45.930Z,98985.97
2023-02-17T06:56:07.381Z,98975.31
2023-02-17T07:01:20.563Z,98961.78
2023-02-17T07:06:30.329Z,98975.31
2023-02-17T07:11:38.164Z,98979.00
2023-02-17T07:16:46.164Z,98976.50
2023-02-17T07:22:08.023Z,98973.88
2023-02-17T07:27:16.088Z,98974.81
2023-02-17T07:32:21.072Z,98974.47
2023-02-17T07:37:26.020Z,98968.19
2023-02-17T07:42:33.772Z,98962.38
2023-02-17T07:47:38.872Z,98962.50
2023-02-17T07:52:44.069Z,98956.34
2023-02-17T07:57:52.072Z,98950.31
2023-02-17T08:02:57.000Z,98953.88
2023-02-17T08:08:29.434Z,98954.91
2023-02-17T08:13:37.379Z,98957.31
2023-02-17T08:18:42.419Z,98965.78
2023-02-17T08:23:47.430Z,98967.50
2023-02-17T08:28:55.219Z,98960.63
2023-02-17T08:34:02.685Z,98959.53
2023-02-17T08:39:08.331Z,98948.41
2023-02-17T08:44:17.854Z,98946.44
2023-02-17T08:49:25.089Z,98955.25
2023-02-17T08:54:30.590Z,98956.28
2023-02-17T08:59:38.416Z,98963.16
2023-02-17T09:04:43.868Z,98949.19
2023-02-17T09:09:49.011Z,98934.25
2023-02-17T09:14:56.889Z,98917.25
2023-02-17T09:20:02.173Z,98927.72
2023-02-17T09:25:11.150Z,98918.03
2023-02-17T09:30:19.523Z,98917.97
2023-02-17T09:35:24.551Z,98927.31
2023-02-17T09:40:40.741Z,98930.03
2023-02-17T09:45:53.707Z,98917.09
2023-02-17T09:51:03.410Z,98901.53
2023-02-17T09:56:16.194Z,98889.09
2023-02-17T10:01:28.931Z,98885.81
2023-02-17T10:06:37.643Z,98876.88
2023-02-17T10:11:47.066Z,98865.66
2023-02-17T10:17:03.226Z,98862.19
2023-02-17T10:22:14.178Z,98875.97
2023-02-17T10:27:39.469Z,98876.28
2023-02-17T10:32:59.743Z,98860.91
2023-02-17T10:38:15.487Z,98839.94
2023-02-17T10:43:29.524Z,98816.59
2023-02-17T10:48:49.023Z,98806.06
2023-02-17T10:53:59.502Z,98804.75
2023-02-17T10:59:09.398Z,98801.75
2023-02-17T11:04:17.060Z,98785.78
2023-02-17T11:09:30.857Z,98775.47
2023-02-17T11:14:40.488Z,98755.28
2023-02-17T11:19:57.964Z,98753.03
2023-02-17T11:25:07.142Z,98747.25
2023-02-17T11:30:18.916Z,98732.88
2023-02-17T11:35:31.265Z,98710.44
2023-02-17T11:40:37.993Z,98704.91
2023-02-17T11:45:48.547Z,98707.69
2023-02-17T11:51:05.513Z,98699.19
2023-02-17T11:56:54.672Z,98702.31
2023-02-17T12:02:37.417Z,98683.91
2023-02-17T12:08:08.248Z,98672.69
2023-02-17T12:13:35.624Z,98660.22
2023-02-17T12:18:52.979Z,98660.19
2023-02-17T12:24:35.496Z,98637.41
2023-02-17T12:30:01.892Z,98630.66
2023-02-17T12:35:17.492Z,98621.81
2023-02-17T12:40:37.824Z,98615.44
2023-02-17T12:45:51.576Z,98592.66
2023-02-17T12:51:05.846Z,98590.78
2023-02-17T12:56:33.156Z,98587.78
2023-02-17T13:01:51.524Z,98588.72
2023-02-17T13:07:15.849Z,98576.03
2023-02-17T13:12:41.563Z,98583.25
2023-02-17T13:18:03.788Z,98550.66
2023-02-17T13:23:11.878Z,98565.88
2023-02-17T13:28:33.618Z,98538.13
2023-02-17T13:33:48.995Z,98533.25
2023-02-17T13:39:03.283Z,98538.28
2023-02-17T13:44:30.290Z,98528.25
2023-02-17T13:49:40.346Z,98527.78
2023-02-17T13:54:54.491Z,98528.88
2023-02-17T14:00:35.019Z,98522.59
2023-02-17T14:05:49.317Z,98513.34
2023-02-17T14:11:09.285Z,98505.66
2023-02-17T14:16:30.875Z,98502.53
2023-02-17T14:21:40.165Z,98503.31
2023-02-17T14:26:50.083Z,98497.66
2023-02-17T14:31:57.626Z,98490.75
2023-02-17T14:37:14.124Z,98480.41
2023-02-17T14:42:19.599Z,98467.66
2023-02-17T14:47:24.658Z,98465.31
2023-02-17T14:52:33.209Z,98468.94
2023-02-17T14:57:38.169Z,98464.53
2023-02-17T15:02:43.127Z,98454.78
2023-02-17T15:07:53.342Z,98452.59
2023-02-17T15:13:02.360Z,98474.56
2023-02-17T15:18:07.521Z,98473.16
2023-02-17T15:23:18.112Z,98475.19
2023-02-17T15:28:23.792Z,98490.13
2023-02-17T15:33:28.824Z,98496.69
2023-02-17T15:38:36.483Z,98484.94
2023-02-17T15:43:43.914Z,98484.28
2023-02-17T15:48:52.373Z,98472.69
2023-02-17T15:54:02.530Z,98481.66
2023-02-17T15:59:17.642Z,98497.66
2023-02-17T16:04:22.962Z,98489.19
2023-02-17T16:09:30.752Z,98482.59
2023-02-17T16:14:38.480Z,98473.66
2023-02-17T16:19:43.572Z,98480.88
2023-02-17T16:24:51.199Z,98472.72
2023-02-17T16:29:56.228Z,98465.63
2023-02-17T16:35:01.397Z,98445.59
2023-02-17T16:40:19.074Z,98463.16
2023-02-17T16:45:28.154Z,98481.97
2023-02-17T16:50:35.390Z,98471.78
2023-02-17T16:55:43.535Z,98455.94
2023-02-17T17:00:52.313Z,98464.72
2023-02-17T17:05:57.942Z,98449.34
2023-02-17T17:11:05.417Z,98459.88
2023-02-17T17:16:15.013Z,98454.06
2023-02-17T17:21:22.110Z,98461.91
2023-02-17T17:26:33.836Z,98474.28
2023-02-17T17:31:40.062Z,98500.00
2023-02-17T17:36:48.164Z,98490.09
2023-02-17T17:41:57.523Z,98486.69
2023-02-17T17:47:02.461Z,98499.38
2023-02-17T17:52:08.561Z,98500.91
2023-02-17T17:57:16.158Z,98526.63
2023-02-17T18:02:21.104Z,98526.97
2023-02-17T18:07:26.262Z,98542.66
2023-02-17T18:12:35.586Z,98553.19
2023-02-17T18:17:45.500Z,98565.81
2023-02-17T18:22:50.760Z,98587.81
2023-02-17T18:28:01.058Z,98590.06
2023-02-17T18:33:06.931Z,98587.94
2023-02-17T18:38:12.538Z,98603.22
2023-02-17T18:43:22.964Z,98591.75
2023-02-17T18:48:28.354Z,98598.53
2023-02-17T18:53:33.412Z,98597.91
2023-02-17T18:58:41.053Z,98607.09
2023-02-17T19:03:46.638Z,98614.50
2023-02-17T19:08:52.560Z,98609.78
2023-02-17T19:14:00.523Z,98628.28
2023-02-17T19:19:06.238Z,98631.31
2023-02-17T19:24:14.979Z,98623.91
2023-02-17T19:29:22.974Z,98621.38
2023-02-17T19:34:28.413Z,98633.00
2023-02-17T19:39:39.646Z,98635.34
2023-02-17T19:44:47.565Z,98635.16
2023-02-17T19:49:52.531Z,98648.19
2023-02-17T19:54:57.563Z,98645.22
2023-02-17T20:00:05.345Z,98631.31
2023-02-17T20:05:11.976Z,98623.69
2023-02-17T20:10:20.516Z,98629.16
2023-02-17T20:15:28.474Z,98629.97
2023-02-17T20:20:34.593Z,98657.38
2023-02-17T20:25:43.510Z,98658.63
2023-02-17T20:30:53.780Z,98672.06
2023-02-17T20:35:58.923Z,98660.31
2023-02-17T20:41:05.251Z,98678.00
2023-02-17T20:46:16.126Z,98672.56
2023-02-17T20:51:22.067Z,98673.16
2023-02-17T20:56:36.307Z,98671.41
2023-02-17T21:01:46.010Z,98672.25
2023-02-17T21:06:51.859Z,98673.94
2023-02-17T21:11:56.789Z,98689.72
2023-02-17T21:17:04.307Z,98692.63
2023-02-17T21:22:10.932Z,98706.72
2023-02-17T21:27:15.870Z,98711.34
2023-02-17T21:32:23.603Z,98737.97
2023-02-17T21:37:28.690Z,98740.63
2023-02-17T21:42:46.246Z,98751.66
2023-02-17T21:47:56.488Z,98764.94
2023-02-17T21:53:01.428Z,98770.25
2023-02-17T21:58:06.371Z,98789.97
2023-02-17T22:03:14.050Z,98800.59
2023-02-17T22:08:21.037Z,98832.06
2023-02-17T22:13:26.120Z,98828.28
2023-02-17T22:18:33.724Z,98841.44
2023-02-17T22:23:39.529Z,98839.25
2023-02-17T22:28:44.657Z,98836.88
2023-02-17T22:33:54.163Z,98847.09
2023-02-17T22:38:59.121Z,98852.41
2023-02-17T22:44:06.649Z,98865.81
2023-02-17T22:49:14.393Z,98869.56
2023-02-17T22:54:19.327Z,98868.25
2023-02-17T22:59:24.659Z,98872.78
2023-02-17T23:04:32.716Z,98882.38
2023-02-17T23:09:37.929Z,98890.34
2023-02-17T23:14:46.755Z,98897.72
2023-02-17T23:19:54.404Z,98913.03
2023-02-17T23:25:00.453Z,98904.63
2023-02-17T23:30:10.639Z,98895.00
2023-02-17T23:35:19.193Z,98922.00
2023-02-17T23:40:24.851Z,98921.00
2023-02-17T23:45:29.818Z,98912.53
2023-02-17T23:50:39.309Z,98921.06
2023-02-17T23:55:44.472Z,98927.66
